Time;durP1;ratioP1;P1;durP2;ratioP2;P2;SDS_P1;SDS_P2;PMS_P1;PMS_P2;Temp;Humidity;BMP_temperature;BMP_pressure;BME280_temperature;BME280_humidity;BME280_pressure;Samples;Min_cycle;Max_cycle;Signal;HPM_P1;HPM_P2
2022/06/23 08:51:52;;;;;;;4.75;1.47;;;;;;;23.90;42.64;99221.75;1818624;78;22676;-42
2022/06/23 08:54:40;;;;;;;3.15;1.50;;;;;;;24.00;42.12;99218.86;1792498;80;21007;-42
2022/06/23 08:57:20;;;;;;;5.65;1.85;;;;;;;24.09;41.31;99221.02;1792568;80;20991;-44
2022/06/23 08:59:57;;;;;;;4.42;1.80;;;;;;;24.36;40.50;99219.72;1792721;80;21484;-43
2022/06/23 09:02:44;;;;;;;4.45;1.52;;;;;;;24.65;41.49;99221.77;1792676;80;20983;-42
2022/06/23 09:05:33;;;;;;;1.42;1.20;;;;;;;24.82;40.05;99214.43;1792486;80;20986;-45
2022/06/23 09:08:04;;;;;;;6.28;1.37;;;;;;;24.97;39.99;99217.69;1792674;80;21010;-44
2022/06/23 09:11:03;;;;;;;7.62;1.70;;;;;;;25.20;39.85;99223.89;1792536;80;20980;-46
2022/06/23 09:14:01;;;;;;;4.08;1.50;;;;;;;25.46;39.40;99223.52;1792534;80;21003;-43
2022/06/23 09:16:59;;;;;;;5.05;1.50;;;;;;;25.71;38.65;99226.50;1774318;78;21868;-47
2022/06/23 09:19:33;;;;;;;3.12;1.70;;;;;;;25.93;38.06;99224.25;1789094;80;20967;-39
2022/06/23 09:22:10;;;;;;;7.95;1.87;;;;;;;26.11;37.42;99221.70;1791899;80;20983;-45
2022/06/23 09:24:57;;;;;;;3.95;1.92;;;;;;;26.27;37.14;99227.38;1791753;80;21054;-42
2022/06/23 09:27:34;;;;;;;2.10;1.40;;;;;;;26.42;37.03;99226.34;1789118;79;20978;-44
2022/06/23 09:30:27;;;;;;;7.12;2.02;;;;;;;26.78;36.71;99226.06;1792220;80;20958;-40
2022/06/23 09:33:21;;;;;;;1.85;1.32;;;;;;;27.17;36.45;99230.16;1754747;78;21055;-47
2022/06/23 09:36:39;;;;;;;4.90;1.50;;;;;;;27.46;35.35;99225.14;1761079;81;21054;-40
2022/06/23 09:39:17;;;;;;;3.20;1.75;;;;;;;27.28;35.21;99236.41;1783843;80;21504;-41
2022/06/23 09:42:19;;;;;;;1.90;1.17;;;;;;;27.22;35.21;99231.77;1792225;80;21127;-38
2022/06/23 09:45:13;;;;;;;4.22;1.67;;;;;;;27.31;34.65;99227.93;1792576;80;21590;-43
2022/06/23 09:48:09;;;;;;;3.47;1.67;;;;;;;27.67;34.95;99228.81;1758607;80;21038;-45
2022/06/23 09:51:03;;;;;;;6.00;1.60;;;;;;;28.22;34.20;99229.80;1785417;80;21007;-42
2022/06/23 09:53:49;;;;;;;5.55;1.80;;;;;;;28.71;32.77;99232.81;1778959;80;21003;-46
2022/06/23 09:56:27;;;;;;;;;;;;;;;29.24;33.74;99225.86;1748468;80;21607;-42
2022/06/23 09:59:18;;;;;;;3.20;1.77;;;;;;;29.85;29.67;99229.69;1778815;80;20385;-44
2022/06/23 10:02:26;;;;;;;2.17;1.50;;;;;;;30.56;32.58;99235.30;1777642;80;21026;-46
2022/06/23 10:05:10;;;;;;;4.47;1.40;;;;;;;30.98;31.44;99231.63;1778059;80;20990;-41
2022/06/23 10:08:11;;;;;;;4.65;1.47;;;;;;;31.42;29.20;99222.20;1778277;80;20999;-49
2022/06/23 10:11:05;;;;;;;3.02;1.62;;;;;;;31.75;29.77;99228.74;1778447;80;20987;-43
2022/06/23 10:13:43;;;;;;;1.75;1.30;;;;;;;32.24;28.62;99228.88;1778189;80;20991;-44
2022/06/23 10:16:30;;;;;;;2.67;1.30;;;;;;;32.58;28.42;99234.70;1784075;80;21057;-42
2022/06/23 10:19:29;;;;;;;2.05;1.30;;;;;;;32.61;27.25;99219.31;1783791;80;20974;-47
2022/06/23 10:22:20;;;;;;;5.30;1.50;;;;;;;32.46;26.66;99227.31;1783649;80;21960;-44
2022/06/23 10:25:00;;;;;;;1.87;1.20;;;;;;;32.23;26.61;99235.36;1783587;80;21481;-45
2022/06/23 10:27:45;;;;;;;3.22;1.40;;;;;;;32.73;24.90;99231.08;1782853;80;21094;-44
2022/06/23 10:30:16;;;;;;;5.70;1.55;;;;;;;32.96;25.32;99234.93;1783771;80;20993;-45
2022/06/23 10:32:59;;;;;;;1.62;1.52;;;;;;;32.95;24.27;99230.56;1783893;80;20993;-45
2022/06/23 10:36:02;;;;;;;1.52;1.20;;;;;;;33.22;24.71;99229.11;1782560;80;21495;-45
2022/06/23 10:38:49;;;;;;;3.65;1.30;;;;;;;33.33;23.73;99222.53;1783948;80;21780;-40
2022/06/23 10:41:59;;;;;;;2.42;1.35;;;;;;;33.71;24.03;99224.00;1782529;80;21006;-42
2022/06/23 10:44:59;;;;;;;2.55;1.55;;;;;;;34.07;23.43;99230.25;1783120;80;21510;-39
2022/06/23 10:47:45;;;;;;;2.22;1.35;;;;;;;34.38;23.37;99227.12;1783511;80;21041;-42
2022/06/23 10:50:38;;;;;;;2.62;1.60;;;;;;;34.69;23.12;99225.02;1782784;79;21037;-41
2022/06/23 10:53:50;;;;;;;7.78;1.47;;;;;;;34.64;20.83;99219.94;1783809;80;21499;-39
2022/06/23 10:56:40;;;;;;;4.62;1.20;;;;;;;34.75;22.11;99220.48;1783665;80;20982;-47
2022/06/23 10:59:53;;;;;;;1.87;1.37;;;;;;;34.97;21.74;99213.22;1783586;79;21832;-45
2022/06/23 11:02:44;;;;;;;6.37;1.50;;;;;;;34.80;22.58;99220.55;1778980;80;20936;-42
2022/06/23 11:05:37;;;;;;;3.90;1.40;;;;;;;35.05;22.79;99222.91;1777845;80;21120;-41
2022/06/23 11:08:37;;;;;;;2.02;1.65;;;;;;;35.13;21.46;99218.41;1755219;80;20951;-40
2022/06/23 11:11:52;;;;;;;4.72;1.55;;;;;;;35.25;22.22;99227.91;1777448;81;21059;-40
2022/06/23 11:14:39;;;;;;;10.10;1.57;;;;;;;35.31;22.13;99222.84;1776911;81;20973;-42
2022/06/23 11:17:19;;;;;;;3.47;1.65;;;;;;;35.68;21.52;99226.95;1778778;81;20976;-39
2022/06/23 11:20:06;;;;;;;3.33;1.60;;;;;;;35.23;20.87;99220.50;1776965;80;21019;-42
2022/06/23 11:22:49;;;;;;;2.77;1.25;;;;;;;35.41;21.78;99219.42;1778197;80;21042;-39
2022/06/23 11:25:51;;;;;;;4.75;1.42;;;;;;;35.57;20.93;99219.12;1791865;80;21040;-38
2022/06/23 11:28:57;;;;;;;6.03;1.62;;;;;;;35.68;20.70;99221.48;1778430;80;21059;-43
2022/06/23 11:31:46;;;;;;;4.80;1.40;;;;;;;35.78;20.38;99221.64;1778751;81;21023;-44
2022/06/23 11:34:26;;;;;;;5.05;1.60;;;;;;;35.84;20.44;99224.75;1778730;80;20979;-50
2022/06/23 11:37:12;;;;;;;2.83;1.30;;;;;;;36.05;19.77;99226.38;1778470;81;20979;-44
2022/06/23 11:39:55;;;;;;;5.55;1.70;;;;;;;35.92;20.19;99224.30;1762991;80;21000;-45
2022/06/23 11:43:04;;;;;;;6.40;2.20;;;;;;;35.57;18.64;99219.12;1776278;80;20988;-42
2022/06/23 11:45:44;;;;;;;3.47;1.47;;;;;;;35.49;19.40;99227.23;1778706;80;21035;-40
2022/06/23 11:48:19;;;;;;;3.37;1.47;;;;;;;35.90;19.81;99226.46;1777889;80;20996;-37
2022/06/23 11:51:11;;;;;;;10.70;1.70;;;;;;;35.50;18.62;99235.70;1782192;80;21520;-41
2022/06/23 11:53:49;;;;;;;2.95;1.52;;;;;;;35.21;20.07;99231.41;1791076;79;20991;-38
2022/06/23 11:56:42;;;;;;;7.17;1.52;;;;;;;35.31;20.08;99221.98;1767587;81;21003;-40
2022/06/23 11:59:22;;;;;;;5.08;1.57;;;;;;;35.23;20.39;99223.23;1729989;82;20968;-44
2022/06/23 12:01:48;;;;;;;1.60;1.50;;;;;;;34.55;20.74;99230.45;1755746;81;21030;-44
2022/06/23 12:04:54;;;;;;;2.00;1.60;;;;;;;34.68;20.85;99230.14;1776861;81;21460;-42
2022/06/23 12:07:54;;;;;;;3.52;1.50;;;;;;;34.99;21.06;99220.62;1756483;81;21010;-40
2022/06/23 12:10:28;;;;;;;2.25;1.70;;;;;;;34.94;21.49;99215.61;1739214;82;20971;-44
2022/06/23 12:12:58;;;;;;;2.50;1.55;;;;;;;34.65;21.78;99223.80;1756620;82;20987;-44
2022/06/23 12:15:31;;;;;;;1.65;1.42;;;;;;;34.86;21.84;99222.86;1740685;82;21024;-44
2022/06/23 12:18:25;;;;;;;3.75;1.70;;;;;;;34.74;21.29;99225.09;1772521;80;21811;-37
2022/06/23 12:20:59;;;;;;;1.72;1.40;;;;;;;34.46;21.65;99220.99;1773491;80;21023;-43
2022/06/23 12:23:47;;;;;;;3.30;1.60;;;;;;;33.61;21.98;99213.12;1772698;80;21035;-40
2022/06/23 12:26:32;;;;;;;3.92;1.50;;;;;;;33.18;22.90;99208.85;1771589;80;20968;-41
2022/06/23 12:29:20;;;;;;;2.15;1.32;;;;;;;33.20;22.16;99210.80;1770696;81;21028;-43
2022/06/23 12:32:23;;;;;;;4.20;1.40;;;;;;;32.66;22.85;99205.84;1769433;81;21003;-45
2022/06/23 12:35:23;;;;;;;6.50;1.60;;;;;;;32.08;23.93;99206.64;1770707;81;20992;-45
2022/06/23 12:38:10;;;;;;;5.08;1.72;;;;;;;31.45;24.42;99202.75;1770728;81;20967;-43
2022/06/23 12:40:56;;;;;;;5.50;1.60;;;;;;;31.46;24.56;99211.22;1692480;85;21611;-42
2022/06/23 12:43:35;;;;;;;3.30;1.52;;;;;;;31.16;24.86;99212.72;1692486;85;21063;-41
2022/06/23 12:46:12;;;;;;;4.37;1.75;;;;;;;30.55;26.02;99212.77;1692728;85;21608;-41
2022/06/23 12:48:49;;;;;;;4.72;1.80;;;;;;;30.12;25.81;99213.86;1692360;85;21070;-40
2022/06/23 12:51:42;;;;;;;4.33;2.02;;;;;;;29.83;26.54;99217.38;1700180;84;21564;-39
2022/06/23 12:54:36;;;;;;;3.95;1.72;;;;;;;29.61;26.85;99214.88;1711187;83;21043;-40
2022/06/23 12:57:35;;;;;;;4.08;1.65;;;;;;;29.58;26.98;99215.32;1710699;84;21039;-36
2022/06/23 13:00:17;;;;;;;3.50;1.60;;;;;;;29.65;27.46;99214.80;1711512;84;21035;-38
2022/06/23 13:02:59;;;;;;;11.85;2.20;;;;;;;29.75;26.92;99206.78;1711260;83;21385;-41
2022/06/23 13:05:35;;;;;;;3.27;1.70;;;;;;;29.90;27.04;99202.46;1711036;83;21477;-41
2022/06/23 13:08:18;;;;;;;5.30;1.70;;;;;;;29.99;27.10;99202.54;1687331;84;21002;-44
2022/06/23 13:10:52;;;;;;;2.95;1.70;;;;;;;30.04;27.07;99206.80;1710438;84;21544;-41
2022/06/23 13:13:24;;;;;;;3.20;1.60;;;;;;;30.06;27.06;99203.35;1711490;84;21020;-40
2022/06/23 13:15:57;;;;;;;2.27;1.72;;;;;;;30.04;26.96;99195.42;1710683;84;21031;-41
2022/06/23 13:18:36;;;;;;;3.62;1.87;;;;;;;30.01;27.91;99199.09;1778278;80;20971;-44
2022/06/23 13:21:22;;;;;;;1.92;1.47;;;;;;;29.97;27.36;99195.97;1788572;80;21050;-46
2022/06/23 13:24:07;;;;;;;3.30;1.72;;;;;;;29.83;27.41;99197.91;1788419;80;21018;-41
2022/06/23 13:26:41;;;;;;;2.92;1.52;;;;;;;29.89;27.28;99194.01;1788475;80;20951;-42
2022/06/23 13:29:24;;;;;;;2.55;1.60;;;;;;;29.84;27.69;99192.77;1788286;80;21091;-39
2022/06/23 13:32:13;;;;;;;4.62;1.87;;;;;;;29.79;27.17;99192.58;1788638;80;20975;-43
2022/06/23 13:34:56;;;;;;;5.78;2.10;;;;;;;29.77;27.37;99191.13;1788108;80;20997;-45
2022/06/23 13:37:42;;;;;;;2.50;1.57;;;;;;;29.58;27.28;99186.88;1788564;80;21077;-44
2022/06/23 13:40:47;;;;;;;10.85;1.98;;;;;;;29.63;28.26;99183.02;1754728;80;20983;-43
2022/06/23 13:43:19;;;;;;;3.65;1.80;;;;;;;29.66;27.83;99187.16;1788628;80;21062;-42
2022/06/23 13:46:09;;;;;;;5.87;2.30;;;;;;;29.41;27.90;99182.39;1788543;80;21035;-45
2022/06/23 13:49:02;;;;;;;3.15;1.50;;;;;;;29.09;27.86;99186.23;1778277;80;21062;-40
2022/06/23 13:51:44;;;;;;;3.92;1.60;;;;;;;28.99;28.25;99180.39;1787525;80;21511;-42
2022/06/23 13:54:24;;;;;;;4.47;2.37;;;;;;;28.86;28.61;99177.69;1786369;80;20995;-42
2022/06/23 13:56:58;;;;;;;4.42;1.67;;;;;;;28.75;29.30;99181.01;1786459;80;20998;-39
2022/06/23 13:59:44;;;;;;;3.83;1.50;;;;;;;28.56;29.25;99183.97;1786364;80;21003;-49
2022/06/23 14:02:26;;;;;;;3.85;1.87;;;;;;;28.29;29.20;99173.88;1784520;80;21605;-40
2022/06/23 14:05:15;;;;;;;3.20;1.85;;;;;;;28.16;29.29;99173.84;1753575;82;21003;-42
2022/06/23 14:08:01;;;;;;;6.97;2.00;;;;;;;28.06;29.56;99171.50;1753894;82;20984;-45
2022/06/23 14:10:35;;;;;;;2.85;1.70;;;;;;;28.21;29.68;99171.34;1754094;82;21497;-40
2022/06/23 14:13:25;;;;;;;2.90;1.80;;;;;;;28.22;29.48;99165.44;1736371;82;20995;-42
2022/06/23 14:16:12;;;;;;;3.15;1.60;;;;;;;28.26;29.72;99158.05;1753998;82;20975;-38
2022/06/23 14:18:50;;;;;;;;;;;;;;;28.32;29.35;99164.52;1755858;82;21019;-39
2022/06/23 14:21:37;;;;;;;2.30;1.82;;;;;;;28.40;30.26;99156.23;1753973;82;20172;-38
2022/06/23 14:24:20;;;;;;;5.50;1.82;;;;;;;28.49;29.77;99167.70;1752752;82;20998;-39
2022/06/23 14:26:57;;;;;;;3.60;1.77;;;;;;;28.53;29.70;99156.81;1754039;82;20995;-47
2022/06/23 14:29:45;;;;;;;5.12;1.40;;;;;;;28.30;29.60;99157.95;1753822;82;20983;-41
2022/06/23 14:32:23;;;;;;;2.90;1.72;;;;;;;28.01;30.06;99158.27;1752864;82;21548;-39
2022/06/23 14:35:03;;;;;;;2.65;1.80;;;;;;;27.81;29.99;99162.20;1753915;82;20991;-39
2022/06/23 14:37:42;;;;;;;5.03;1.90;;;;;;;27.57;30.42;99161.12;1759901;80;20967;-40
2022/06/23 14:40:18;;;;;;;4.28;1.70;;;;;;;27.45;30.60;99164.08;1785997;80;21555;-41
2022/06/23 14:43:18;;;;;;;2.42;1.90;;;;;;;27.44;30.80;99168.32;1784943;79;20970;-37
2022/06/23 14:45:52;;;;;;;1.67;1.57;;;;;;;27.42;30.75;99160.94;1786403;80;21030;-42
2022/06/23 14:48:44;;;;;;;2.27;1.55;;;;;;;27.43;30.96;99158.02;1785076;80;21480;-38
2022/06/23 14:51:33;;;;;;;2.55;1.65;;;;;;;27.50;30.55;99154.84;1748162;81;21495;-40
2022/06/23 14:54:14;;;;;;;2.08;1.47;;;;;;;27.54;31.01;99153.92;1752700;82;21544;-41
2022/06/23 14:56:58;;;;;;;3.98;1.77;;;;;;;27.29;29.85;99149.00;1751769;82;21907;-42
2022/06/23 14:59:44;;;;;;;2.92;1.90;;;;;;;27.41;30.75;99151.15;1753016;82;21460;-45
2022/06/23 15:03:07;;;;;;;2.75;1.75;;;;;;;27.44;31.21;99151.59;1753232;80;21034;-46
2022/06/23 15:05:55;;;;;;;2.85;1.50;;;;;;;27.53;31.69;99150.41;1752712;82;21011;-39
2022/06/23 15:08:45;;;;;;;10.38;1.90;;;;;;;27.63;31.54;99147.86;1752160;81;21441;-40
2022/06/23 15:11:29;;;;;;;5.25;1.92;;;;;;;27.62;31.50;99147.03;1752867;81;21027;-46
2022/06/23 15:14:32;;;;;;;2.95;1.70;;;;;;;27.69;31.50;99148.43;1752051;80;21010;-38
2022/06/23 15:17:06;;;;;;;2.10;1.50;;;;;;;27.70;31.30;99147.37;1752735;82;21156;-42
2022/06/23 15:19:37;;;;;;;2.90;1.82;;;;;;;27.70;31.61;99143.33;1753009;82;20995;-44
2022/06/23 15:25:19;;;;;;;4.10;1.40;;;;;;;27.77;31.45;99145.55;1752885;82;20991;-40
2022/06/23 15:27:56;;;;;;;3.35;1.60;;;;;;;27.70;31.22;99147.37;1752389;81;20991;-37
2022/06/23 15:30:33;;;;;;;3.00;1.20;;;;;;;27.66;31.58;99142.06;1734907;80;21580;-40
2022/06/23 15:33:17;;;;;;;6.65;2.02;;;;;;;27.61;31.72;99141.30;1752751;81;20991;-42
2022/06/23 15:36:16;;;;;;;7.72;2.35;;;;;;;27.61;31.76;99137.77;1752776;82;20963;-39
2022/06/23 15:38:59;;;;;;;9.85;2.08;;;;;;;27.64;31.46;99134.69;1753063;82;21019;-43
2022/06/23 15:41:55;;;;;;;2.70;1.35;;;;;;;27.63;31.39;99138.41;1753014;82;20987;-41
2022/06/23 15:44:32;;;;;;;4.20;2.35;;;;;;;27.62;31.40;99139.45;1760082;80;20960;-43
2022/06/23 15:47:04;;;;;;;9.40;1.82;;;;;;;27.61;31.77;99137.77;1757583;80;21463;-44
2022/06/23 15:49:35;;;;;;;6.03;1.62;;;;;;;27.65;31.88;99130.93;1752264;81;21453;-42
2022/06/23 15:52:24;;;;;;;2.30;1.80;;;;;;;27.66;31.78;99133.44;1746858;81;21015;-40
2022/06/23 15:55:13;;;;;;;2.30;1.45;;;;;;;27.63;31.54;99129.77;1739195;82;20976;-42
2022/06/23 15:57:45;;;;;;;3.15;2.10;;;;;;;27.51;31.79;99133.56;1734722;82;20968;-40
2022/06/23 16:00:21;;;;;;;3.45;1.70;;;;;;;27.50;31.94;99137.28;1737485;82;20957;-41
2022/06/23 16:02:59;;;;;;;8.85;1.77;;;;;;;27.43;31.70;99146.38;1739487;82;20988;-48
2022/06/23 16:05:29;;;;;;;5.97;1.80;;;;;;;27.25;31.44;99141.45;1739021;82;20976;-48
2022/06/23 16:08:06;;;;;;;2.77;1.62;;;;;;;27.24;31.97;99142.49;1739332;82;21469;-43
2022/06/23 16:10:39;;;;;;;4.17;2.00;;;;;;;27.26;31.82;99143.12;1738092;82;21035;-43
2022/06/23 16:13:29;;;;;;;3.83;2.02;;;;;;;27.24;31.88;99154.64;1739473;82;21465;-46
2022/06/23 16:16:00;;;;;;;1.60;1.50;;;;;;;27.22;32.05;99149.96;1717608;82;21004;-43
2022/06/23 16:18:31;;;;;;;4.42;1.90;;;;;;;27.19;31.94;99151.99;1741646;82;21021;-40
2022/06/23 16:21:11;;;;;;;2.65;1.67;;;;;;;27.12;32.21;99145.73;1741829;82;21039;-43
2022/06/23 16:24:03;;;;;;;7.65;1.70;;;;;;;27.11;32.12;99138.66;1741272;82;20999;-43
2022/06/23 16:26:41;;;;;;;2.05;1.72;;;;;;;27.05;32.18;99138.10;1725586;82;21027;-42
2022/06/23 16:29:11;;;;;;;6.35;1.85;;;;;;;27.02;32.26;99139.83;1728011;82;21023;-44
2022/06/23 16:31:58;;;;;;;1.92;1.65;;;;;;;27.04;32.34;99139.12;1741726;82;21118;-43
2022/06/23 16:34:29;;;;;;;4.15;1.90;;;;;;;27.06;32.61;99142.45;1741881;82;21112;-39
2022/06/23 16:37:21;;;;;;;2.65;1.90;;;;;;;27.07;32.60;99138.73;1741804;82;20996;-41
2022/06/23 16:40:05;;;;;;;6.10;1.60;;;;;;;27.06;32.60;99143.80;1752731;81;21500;-41
2022/06/23 16:42:45;;;;;;;3.10;1.65;;;;;;;27.07;32.55;99144.62;1752594;82;20980;-39
2022/06/23 16:45:39;;;;;;;4.17;1.87;;;;;;;27.07;32.53;99145.48;1752134;82;21018;-41
2022/06/23 16:48:24;;;;;;;11.70;1.75;;;;;;;27.00;32.44;99143.24;1752656;81;21003;-41
2022/06/23 16:51:13;;;;;;;3.12;1.62;;;;;;;26.90;32.65;99138.69;1752983;82;20959;-46
2022/06/23 16:53:46;;;;;;;7.10;1.67;;;;;;;26.80;32.92;99142.55;1751916;82;21003;-44
2022/06/23 16:56:27;;;;;;;2.10;1.42;;;;;;;26.68;32.94;99146.78;1752946;82;20979;-41
2022/06/23 16:59:22;;;;;;;6.35;1.65;;;;;;;26.62;33.00;99140.82;1752923;81;20987;-46
2022/06/23 17:02:05;;;;;;;4.28;1.90;;;;;;;26.59;33.01;99142.52;1753139;82;21431;-39
2022/06/23 17:04:49;;;;;;;7.87;1.82;;;;;;;26.43;33.15;99143.59;1753122;81;21062;-42
2022/06/23 17:07:52;;;;;;;4.08;1.92;;;;;;;26.34;33.20;99142.89;1763919;80;20991;-36
2022/06/23 17:10:29;;;;;;;5.53;1.60;;;;;;;26.32;33.43;99150.31;1774765;80;21030;-42
2022/06/23 17:13:21;;;;;;;4.87;1.40;;;;;;;26.30;33.59;99149.67;1777600;80;21103;-39
2022/06/23 17:16:02;;;;;;;5.17;1.77;;;;;;;26.19;33.71;99142.91;1778534;81;21606;-41
2022/06/23 17:18:50;;;;;;;3.10;1.60;;;;;;;26.20;33.92;99143.77;1778246;80;20962;-43
2022/06/23 17:21:42;;;;;;;5.60;2.02;;;;;;;26.20;33.94;99142.42;1778587;80;21030;-36
2022/06/23 17:24:30;;;;;;;5.08;1.85;;;;;;;26.18;34.14;99144.47;1773987;80;21448;-39
2022/06/23 17:27:04;;;;;;;3.47;1.50;;;;;;;26.14;34.07;99149.41;1778678;80;20955;-42
2022/06/23 17:30:04;;;;;;;8.35;1.90;;;;;;;26.08;34.10;99146.62;1778710;80;20998;-37
2022/06/23 17:32:53;;;;;;;4.28;1.70;;;;;;;26.06;34.05;99148.15;1776865;80;21054;-37
2022/06/23 17:35:33;;;;;;;2.60;1.87;;;;;;;26.00;34.26;99150.27;1774404;81;21737;-47
2022/06/23 17:44:18;;;;;;;3.27;1.90;;;;;;;25.88;34.72;99151.20;1778805;81;21016;-38
2022/06/23 17:46:50;;;;;;;4.17;1.60;;;;;;;25.81;34.84;99151.62;1778485;81;21511;-38
2022/06/23 17:49:34;;;;;;;3.83;1.92;;;;;;;25.76;34.83;99154.89;1777167;80;21033;-42
2022/06/23 17:52:09;;;;;;;2.60;1.67;;;;;;;25.70;35.00;99158.83;1776506;80;21601;-39
2022/06/23 17:54:42;;;;;;;2.87;1.45;;;;;;;25.61;35.21;99157.59;1776858;80;21011;-42
2022/06/23 17:57:32;;;;;;;2.90;1.70;;;;;;;25.53;35.06;99158.19;1778622;80;20998;-41
2022/06/23 18:00:15;;;;;;;3.47;1.70;;;;;;;25.46;35.41;99164.81;1777899;80;20982;-38
2022/06/23 18:02:54;;;;;;;7.85;1.80;;;;;;;25.40;35.46;99162.86;1778518;81;20959;-41
2022/06/23 18:05:28;;;;;;;7.55;1.70;;;;;;;25.32;35.82;99164.28;1778757;81;21448;-41
2022/06/23 18:08:02;;;;;;;4.83;1.77;;;;;;;25.27;35.89;99165.67;1758984;81;21022;-41
2022/06/23 18:10:41;;;;;;;6.00;1.90;;;;;;;25.19;35.96;99165.70;1753437;81;21485;-37
2022/06/23 18:13:18;;;;;;;2.50;1.98;;;;;;;25.15;36.43;99167.61;1730310;82;20960;-41
2022/06/23 18:16:15;;;;;;;4.12;2.50;;;;;;;25.07;36.41;99165.83;1753508;81;21503;-37
2022/06/23 18:18:52;;;;;;;3.37;2.12;;;;;;;25.02;36.61;99173.61;1753712;82;20987;-38
2022/06/23 18:21:53;;;;;;;4.37;2.27;;;;;;;24.97;36.65;99176.82;1753798;82;20964;-44
2022/06/23 18:24:40;;;;;;;4.55;2.02;;;;;;;24.91;37.18;99171.66;1753614;81;21023;-39
2022/06/23 18:27:27;;;;;;;6.40;2.52;;;;;;;24.83;37.64;99172.23;1753820;82;21472;-41
2022/06/23 18:30:10;;;;;;;5.08;1.90;;;;;;;24.74;37.75;99175.51;1753626;82;20960;-39
2022/06/23 18:32:48;;;;;;;4.70;2.17;;;;;;;24.66;37.88;99175.55;1753706;82;20959;-42
2022/06/23 18:35:28;;;;;;;4.87;2.35;;;;;;;24.61;38.04;99172.55;1752864;82;21019;-42
2022/06/23 18:38:14;;;;;;;5.03;2.37;;;;;;;24.56;38.36;99175.80;1752530;81;21555;-37
2022/06/23 18:40:55;;;;;;;4.03;2.05;;;;;;;24.52;38.40;99176.66;1753718;82;20987;-40
2022/06/23 18:43:52;;;;;;;4.92;2.05;;;;;;;24.46;38.52;99180.00;1753619;82;21425;-41
2022/06/23 18:46:33;;;;;;;;;;;;;;;24.38;39.05;99183.27;1756163;81;21464;-41
2022/06/23 18:49:05;;;;;;;4.40;2.33;;;;;;;24.27;39.88;99181.81;1752833;82;20106;-41
2022/06/23 18:51:32;;;;;;;4.08;2.45;;;;;;;24.22;39.23;99182.33;1727835;81;21035;-42
2022/06/23 18:54:06;;;;;;;4.55;2.20;;;;;;;24.16;39.56;99183.04;1753508;81;21175;-42
2022/06/23 18:56:51;;;;;;;3.12;2.50;;;;;;;24.11;39.66;99183.55;1753231;82;20956;-37
2022/06/23 18:59:40;;;;;;;7.00;2.83;;;;;;;24.04;39.96;99181.23;1753524;82;21587;-44
2022/06/23 19:02:33;;;;;;;6.03;3.25;;;;;;;23.99;39.95;99187.63;1753513;82;21445;-39
2022/06/23 19:05:16;;;;;;;6.70;2.62;;;;;;;23.92;40.34;99186.64;1753519;82;20987;-39
2022/06/23 19:07:59;;;;;;;7.20;2.60;;;;;;;23.84;40.80;99187.52;1753536;82;21019;-42
2022/06/23 19:10:54;;;;;;;5.42;2.58;;;;;;;23.81;41.09;99191.05;1753676;82;21124;-40
2022/06/23 19:13:37;;;;;;;8.35;3.02;;;;;;;23.74;41.43;99194.41;1753544;81;21472;-38
2022/06/23 19:16:27;;;;;;;6.90;2.77;;;;;;;23.69;41.77;99192.73;1753447;81;20975;-43
2022/06/23 19:19:31;;;;;;;5.90;2.58;;;;;;;23.63;41.99;99194.77;1753631;82;21022;-40
2022/06/23 19:22:29;;;;;;;19.60;2.52;;;;;;;23.57;42.12;99191.41;1738790;81;20983;-41
2022/06/23 19:25:32;;;;;;;4.42;2.87;;;;;;;23.52;42.37;99193.28;1753703;81;20979;-42
2022/06/23 19:28:12;;;;;;;5.67;3.02;;;;;;;23.45;42.38;99201.68;1753449;82;20979;-40
2022/06/23 19:31:09;;;;;;;6.00;3.12;;;;;;;23.36;42.86;99198.16;1753660;82;21464;-45
2022/06/23 19:33:45;;;;;;;7.87;2.70;;;;;;;23.30;43.00;99198.85;1753591;81;21011;-40
2022/06/23 19:36:35;;;;;;;4.50;2.95;;;;;;;23.24;43.23;99195.48;1753659;82;21044;-42
2022/06/23 19:39:46;;;;;;;4.58;2.72;;;;;;;23.19;43.47;99196.48;1753612;82;20952;-38
2022/06/23 19:42:23;;;;;;;3.10;2.25;;;;;;;23.13;43.60;99192.64;1753568;81;20990;-41
2022/06/23 19:45:13;;;;;;;9.20;2.58;;;;;;;23.07;43.62;99196.00;1753752;81;20960;-41
2022/06/23 19:47:42;;;;;;;5.67;2.62;;;;;;;22.99;43.96;99196.81;1753546;82;20999;-42
2022/06/23 19:50:43;;;;;;;5.97;3.20;;;;;;;22.96;44.19;99199.82;1753550;82;21476;-42
2022/06/23 19:53:35;;;;;;;4.97;2.83;;;;;;;22.92;44.34;99195.80;1724166;80;20992;-41
2022/06/23 19:56:21;;;;;;;7.15;2.85;;;;;;;22.84;44.71;99201.14;1749385;81;21448;-41
2022/06/23 19:59:04;;;;;;;7.83;3.02;;;;;;;22.78;44.63;99203.16;1749307;82;20978;-46
2022/06/23 20:01:38;;;;;;;7.22;3.10;;;;;;;22.74;44.77;99197.77;1749303;81;21491;-39
2022/06/23 20:04:15;;;;;;;5.75;3.33;;;;;;;22.68;45.07;99196.59;1749390;82;20960;-41
2022/06/23 20:06:46;;;;;;;7.08;2.80;;;;;;;22.64;45.10;99193.08;1749449;82;21038;-40
2022/06/23 20:09:37;;;;;;;6.33;2.95;;;;;;;22.58;45.56;99195.41;1748102;82;21500;-40
2022/06/23 20:12:17;;;;;;;5.45;2.92;;;;;;;22.54;45.76;99195.89;1749325;82;20948;-42
2022/06/23 20:15:04;;;;;;;6.72;2.70;;;;;;;22.49;45.93;99189.70;1748886;82;21510;-42
2022/06/23 20:18:06;;;;;;;8.93;3.58;;;;;;;22.46;46.02;99190.02;1749072;82;21472;-40
2022/06/23 20:20:52;;;;;;;6.50;3.05;;;;;;;22.39;46.21;99186.31;1749313;82;20960;-38
2022/06/23 20:23:41;;;;;;;5.62;2.85;;;;;;;22.35;46.17;99190.33;1749443;82;21478;-43
2022/06/23 20:26:13;;;;;;;9.38;4.05;;;;;;;22.27;46.70;99189.81;1749373;81;20999;-42
2022/06/23 20:29:05;;;;;;;5.08;3.20;;;;;;;22.23;46.60;99190.61;1734277;82;20991;-43
2022/06/23 20:31:37;;;;;;;5.03;3.45;;;;;;;22.19;47.03;99195.95;1749380;80;20980;-44
2022/06/23 20:34:28;;;;;;;5.35;2.90;;;;;;;22.16;46.94;99204.30;1748889;82;20983;-40
2022/06/23 20:37:32;;;;;;;6.08;3.27;;;;;;;22.12;47.17;99196.27;1749369;82;21019;-40
2022/06/23 20:40:21;;;;;;;6.60;3.25;;;;;;;22.10;47.25;99194.22;1749336;82;20987;-40
2022/06/23 20:43:13;;;;;;;8.83;3.22;;;;;;;22.06;47.15;99194.21;1748381;82;21015;-41
2022/06/23 20:46:13;;;;;;;6.33;3.37;;;;;;;22.01;47.57;99197.86;1749284;82;20987;-39
2022/06/23 20:49:03;;;;;;;10.88;3.17;;;;;;;21.95;47.53;99189.14;1749132;80;20968;-43
2022/06/23 20:51:52;;;;;;;6.50;3.17;;;;;;;21.90;48.02;99188.27;1748921;82;20983;-39
2022/06/23 20:54:38;;;;;;;4.55;3.58;;;;;;;21.87;47.99;99190.46;1748995;82;21564;-39
2022/06/23 20:57:34;;;;;;;7.92;2.85;;;;;;;21.83;48.07;99188.60;1749261;82;21446;-40
2022/06/23 21:00:19;;;;;;;5.00;3.05;;;;;;;21.78;48.18;99190.91;1675058;84;21053;-39
2022/06/23 21:02:59;;;;;;;4.67;3.08;;;;;;;21.76;48.16;99199.61;1679776;84;21531;-39
2022/06/23 21:05:54;;;;;;;5.72;3.60;;;;;;;21.70;48.62;99201.05;1679626;85;21018;-40
2022/06/23 21:08:37;;;;;;;4.90;3.00;;;;;;;21.65;48.51;99202.05;1679737;85;20997;-39
2022/06/23 21:11:36;;;;;;;6.17;3.00;;;;;;;21.60;49.12;99203.84;1679559;84;21027;-40
2022/06/23 21:14:36;;;;;;;8.55;3.27;;;;;;;21.56;49.00;99199.81;1679547;84;21510;-39
2022/06/23 21:17:26;;;;;;;6.80;3.10;;;;;;;21.50;49.22;99208.96;1679705;84;21472;-39
2022/06/23 21:20:14;;;;;;;12.37;4.12;;;;;;;21.48;49.18;99201.09;1679719;84;20997;-40
2022/06/23 21:23:19;;;;;;;5.87;3.65;;;;;;;21.39;49.66;99193.97;1679372;84;21548;-39
2022/06/23 21:25:50;;;;;;;8.95;3.75;;;;;;;21.34;49.56;99191.78;1679800;84;21033;-39
2022/06/23 21:28:45;;;;;;;9.43;3.90;;;;;;;21.30;50.23;99191.73;1677610;84;21541;-39
2022/06/23 21:31:34;;;;;;;6.85;3.85;;;;;;;21.25;50.33;99198.91;1646077;85;21518;-39
2022/06/23 21:34:08;;;;;;;5.65;3.72;;;;;;;21.19;50.58;99196.86;1679805;85;21050;-40
2022/06/23 21:36:47;;;;;;;7.12;3.67;;;;;;;21.16;50.50;99197.67;1709217;82;21535;-39
2022/06/23 21:39:31;;;;;;;7.65;3.70;;;;;;;21.12;50.51;99194.94;1749254;82;20987;-39
2022/06/23 21:42:05;;;;;;;7.62;4.03;;;;;;;21.08;50.58;99199.28;1748468;82;20975;-40
2022/06/23 21:44:42;;;;;;;6.15;3.47;;;;;;;21.05;50.76;99199.58;1747315;82;21003;-38
2022/06/23 21:47:13;;;;;;;7.08;3.77;;;;;;;21.02;50.96;99201.22;1748621;82;21525;-39
2022/06/23 21:49:58;;;;;;;7.03;3.80;;;;;;;21.00;50.94;99203.20;1749186;82;20971;-39
2022/06/23 21:53:02;;;;;;;8.90;3.70;;;;;;;20.99;50.99;99198.88;1748642;82;20971;-39
2022/06/23 21:55:46;;;;;;;7.30;3.60;;;;;;;20.96;51.00;99199.67;1716231;82;21035;-39
2022/06/23 21:58:42;;;;;;;6.37;3.83;;;;;;;20.94;51.22;99202.97;1749404;82;21035;-39
2022/06/23 22:01:28;;;;;;;9.00;3.75;;;;;;;20.92;51.14;99203.16;1749393;80;21041;-41